createdAt,value
2019-03-15T00:02:05.221Z,99.90
2019-03-15T00:04:34.295Z,99.90
2019-03-15T00:07:03.541Z,99.90
2019-03-15T00:09:32.561Z,99.90
2019-03-15T00:12:02.108Z,99.90
2019-03-15T00:14:31.181Z,99.90
2019-03-15T00:17:00.297Z,99.90
2019-03-15T00:19:29.496Z,99.90
2019-03-15T00:21:58.646Z,99.90
2019-03-15T00:24:27.679Z,99.90
2019-03-15T00:26:56.951Z,99.90
2019-03-15T00:29:25.978Z,99.90
2019-03-15T00:31:55.218Z,99.90
2019-03-15T00:34:24.357Z,99.90
2019-03-15T00:36:53.368Z,99.90
2019-03-15T00:39:22.387Z,99.90
2019-03-15T00:41:52.454Z,99.90
2019-03-15T00:44:21.401Z,99.90
2019-03-15T00:46:50.479Z,99.90
2019-03-15T00:49:19.581Z,99.90
2019-03-15T00:51:49.149Z,99.90
2019-03-15T00:54:18.255Z,99.90
2019-03-15T00:56:47.318Z,99.90
2019-03-15T00:59:16.649Z,99.90
2019-03-15T01:01:46.146Z,99.90
2019-03-15T01:04:15.418Z,99.90
2019-03-15T01:06:44.602Z,99.90
2019-03-15T01:09:14.198Z,99.90
2019-03-15T01:11:45.590Z,99.90
2019-03-15T01:14:14.421Z,99.90
2019-03-15T01:16:43.701Z,99.70
2019-03-15T01:19:12.941Z,99.60
2019-03-15T01:21:42.180Z,97.90
2019-03-15T01:24:11.552Z,96.80
2019-03-15T01:26:43.588Z,97.10
2019-03-15T01:29:12.552Z,96.50
2019-03-15T01:31:41.509Z,96.90
2019-03-15T01:34:10.586Z,97.00
2019-03-15T01:36:39.550Z,97.20
2019-03-15T01:39:08.808Z,97.00
2019-03-15T01:41:37.915Z,96.50
2019-03-15T01:44:06.848Z,96.70
2019-03-15T01:46:35.827Z,96.90
2019-03-15T01:49:04.921Z,97.10
2019-03-15T01:51:34.042Z,96.90
2019-03-15T01:54:03.077Z,96.90
2019-03-15T01:56:32.190Z,96.50
2019-03-15T01:59:01.421Z,96.80
2019-03-15T02:01:30.855Z,97.10
2019-03-15T02:04:00.175Z,97.10
2019-03-15T02:06:29.374Z,97.00
2019-03-15T02:08:58.342Z,97.60
2019-03-15T02:11:27.484Z,97.70
2019-03-15T02:13:56.430Z,97.20
2019-03-15T02:16:25.378Z,97.30
2019-03-15T02:18:54.388Z,97.60
2019-03-15T02:21:24.036Z,97.40
2019-03-15T02:23:53.203Z,97.50
2019-03-15T02:26:22.413Z,98.10
2019-03-15T02:28:51.694Z,98.20
2019-03-15T02:31:20.925Z,98.20
2019-03-15T02:33:50.284Z,98.10
2019-03-15T02:36:19.317Z,98.20
2019-03-15T02:38:48.575Z,97.90
2019-03-15T02:41:17.646Z,97.80
2019-03-15T02:43:46.949Z,98.10
2019-03-15T02:46:16.196Z,98.20
2019-03-15T02:48:45.513Z,98.20
2019-03-15T02:51:14.482Z,98.10
2019-03-15T02:53:43.817Z,97.80
2019-03-15T02:56:13.123Z,98.00
2019-03-15T02:58:42.170Z,98.00
2019-03-15T03:01:12.126Z,98.10
2019-03-15T03:03:41.301Z,98.40
2019-03-15T03:06:10.767Z,98.50
2019-03-15T03:08:41.304Z,98.70
2019-03-15T03:11:10.773Z,98.50
2019-03-15T03:13:40.033Z,98.40
2019-03-15T03:16:09.426Z,98.50
2019-03-15T03:18:38.578Z,98.40
2019-03-15T03:21:07.779Z,98.60
2019-03-15T03:23:37.045Z,98.50
2019-03-15T03:26:06.271Z,98.60
2019-03-15T03:28:35.425Z,98.80
2019-03-15T03:31:04.893Z,98.70
2019-03-15T03:33:34.469Z,98.80
2019-03-15T03:36:04.150Z,98.60
2019-03-15T03:38:33.210Z,98.60
2019-03-15T03:41:02.341Z,98.60
2019-03-15T03:43:31.584Z,98.70
2019-03-15T03:46:01.304Z,98.70
2019-03-15T03:48:30.389Z,98.40
2019-03-15T03:51:00.254Z,98.80
2019-03-15T03:53:29.551Z,98.60
2019-03-15T03:55:58.683Z,98.80
2019-03-15T03:58:27.969Z,98.60
2019-03-15T04:00:57.198Z,99.00
2019-03-15T04:03:26.364Z,98.90
2019-03-15T04:05:55.840Z,98.90
2019-03-15T04:08:24.862Z,98.80
2019-03-15T04:10:54.069Z,99.10
2019-03-15T04:13:23.401Z,99.00
2019-03-15T04:15:52.957Z,99.10
2019-03-15T04:18:22.456Z,99.30
2019-03-15T04:20:51.409Z,99.20
2019-03-15T04:23:20.480Z,99.30
2019-03-15T04:25:49.838Z,99.30
2019-03-15T04:28:19.245Z,99.30
2019-03-15T04:30:48.791Z,99.10
2019-03-15T04:33:17.956Z,99.10
2019-03-15T04:35:47.131Z,98.90
2019-03-15T04:38:16.328Z,98.80
2019-03-15T04:40:45.676Z,98.70
2019-03-15T04:43:14.958Z,98.80
2019-03-15T04:45:44.201Z,98.70
2019-03-15T04:48:13.483Z,98.50
2019-03-15T04:50:42.593Z,98.60
2019-03-15T04:53:13.130Z,98.30
2019-03-15T04:55:42.491Z,98.50
2019-03-15T04:58:11.910Z,98.20
2019-03-15T05:00:40.942Z,98.30
2019-03-15T05:03:10.190Z,98.40
2019-03-15T05:05:39.481Z,98.30
2019-03-15T05:08:08.729Z,98.10
2019-03-15T05:10:37.996Z,98.20
2019-03-15T05:13:07.131Z,98.10
2019-03-15T05:15:36.281Z,98.20
2019-03-15T05:18:05.380Z,98.20
2019-03-15T05:20:34.719Z,98.00
2019-03-15T05:23:04.197Z,97.80
2019-03-15T05:25:33.619Z,97.90
2019-03-15T05:28:02.622Z,98.00
2019-03-15T05:30:31.699Z,98.00
2019-03-15T05:33:00.776Z,97.80
2019-03-15T05:35:29.802Z,97.70
2019-03-15T05:37:58.759Z,97.80
2019-03-15T05:40:28.204Z,97.90
2019-03-15T05:42:57.176Z,97.80
2019-03-15T05:45:26.175Z,98.00
2019-03-15T05:47:55.178Z,97.90
2019-03-15T05:50:24.196Z,97.90
2019-03-15T05:52:53.162Z,98.00
2019-03-15T05:55:22.176Z,98.10
2019-03-15T05:57:51.138Z,98.10
2019-03-15T06:00:20.217Z,98.20
2019-03-15T06:02:49.261Z,98.20
2019-03-15T06:05:18.198Z,98.20
2019-03-15T06:07:47.367Z,98.40
2019-03-15T06:10:16.395Z,98.20
2019-03-15T06:12:45.520Z,97.80
2019-03-15T06:15:14.524Z,98.10
2019-03-15T06:17:43.783Z,98.10
2019-03-15T06:20:13.554Z,98.40
2019-03-15T06:22:42.521Z,98.30
2019-03-15T06:25:12.159Z,98.10
2019-03-15T06:27:41.304Z,98.20
2019-03-15T06:30:14.621Z,98.40
2019-03-15T06:32:43.742Z,98.60
2019-03-15T06:35:13.113Z,98.60
2019-03-15T06:37:42.057Z,98.70
2019-03-15T06:40:13.563Z,98.80
2019-03-15T06:42:42.659Z,98.90
2019-03-15T06:45:15.589Z,99.00
2019-03-15T06:47:44.537Z,99.10
2019-03-15T06:50:13.821Z,99.20
2019-03-15T06:52:43.073Z,99.20
2019-03-15T06:55:12.707Z,99.30
2019-03-15T06:57:41.798Z,99.50
2019-03-15T07:00:13.117Z,99.60
2019-03-15T07:02:42.468Z,99.50
2019-03-15T07:05:12.615Z,99.60
2019-03-15T07:07:41.820Z,99.60
2019-03-15T07:10:12.002Z,99.60
2019-03-15T07:12:41.097Z,99.70
2019-03-15T07:15:11.966Z,99.70
2019-03-15T07:17:41.700Z,99.80
2019-03-15T07:20:15.701Z,99.80
2019-03-15T07:22:44.818Z,99.90
2019-03-15T07:25:14.125Z,99.90
2019-03-15T07:27:43.299Z,99.80
2019-03-15T07:30:16.536Z,99.60
2019-03-15T07:32:45.482Z,99.50
2019-03-15T07:35:14.544Z,99.60
2019-03-15T07:37:45.483Z,99.50
2019-03-15T07:40:14.585Z,99.60
2019-03-15T07:42:43.682Z,99.90
2019-03-15T07:45:15.758Z,99.90
2019-03-15T07:47:44.782Z,99.80
2019-03-15T07:50:16.924Z,99.90
2019-03-15T07:52:45.981Z,99.90
2019-03-15T07:55:14.993Z,99.90
2019-03-15T07:57:43.945Z,99.90
2019-03-15T08:00:16.940Z,99.90
2019-03-15T08:02:45.927Z,99.90
2019-03-15T08:05:14.942Z,99.90
2019-03-15T08:07:45.593Z,99.90
2019-03-15T08:10:14.638Z,99.90
2019-03-15T08:12:43.767Z,99.90
2019-03-15T08:15:14.463Z,99.90
2019-03-15T08:17:43.483Z,99.90
2019-03-15T08:20:14.791Z,99.90
2019-03-15T08:22:43.849Z,99.90
2019-03-15T08:25:13.003Z,99.90
2019-03-15T08:27:42.232Z,99.90
2019-03-15T08:30:16.455Z,99.90
2019-03-15T08:32:45.607Z,99.90
2019-03-15T08:35:14.792Z,99.90
2019-03-15T08:37:43.883Z,99.90
2019-03-15T08:40:14.158Z,99.90
2019-03-15T08:42:43.130Z,99.90
2019-03-15T08:45:18.195Z,99.90
2019-03-15T08:47:47.531Z,99.90
2019-03-15T08:50:18.469Z,99.90
2019-03-15T08:52:47.512Z,99.90
2019-03-15T08:55:16.517Z,99.90
2019-03-15T08:57:45.456Z,99.90
2019-03-15T09:00:15.558Z,99.90
2019-03-15T09:02:44.692Z,99.90
2019-03-15T09:05:15.780Z,99.90
2019-03-15T09:07:46.013Z,99.90
2019-03-15T09:10:22.995Z,99.90
2019-03-15T09:12:48.090Z,99.90
2019-03-15T09:15:17.168Z,99.90
2019-03-15T09:17:46.407Z,99.90
2019-03-15T09:20:15.968Z,99.90
2019-03-15T09:22:45.350Z,99.90
2019-03-15T09:25:19.904Z,99.90
2019-03-15T09:27:47.091Z,99.90
2019-03-15T09:30:24.581Z,99.90
2019-03-15T09:32:47.290Z,99.90
2019-03-15T09:35:16.350Z,99.90
2019-03-15T09:40:25.908Z,99.90
2019-03-15T09:42:55.295Z,99.90
2019-03-15T09:45:24.370Z,99.90
2019-03-15T09:47:53.375Z,99.90
2019-03-15T09:50:33.911Z,99.90
2019-03-15T09:52:53.403Z,99.90
2019-03-15T09:55:32.257Z,99.90
2019-03-15T09:57:53.282Z,99.90
2019-03-15T10:00:22.340Z,99.90
2019-03-15T10:02:51.454Z,99.90
2019-03-15T10:05:20.396Z,99.90
2019-03-15T10:07:49.366Z,99.90
2019-03-15T10:10:19.941Z,99.90
2019-03-15T10:12:49.071Z,99.90
2019-03-15T10:15:18.346Z,99.90
2019-03-15T10:17:47.497Z,99.90
2019-03-15T10:20:16.669Z,99.90
2019-03-15T10:22:46.034Z,99.90
2019-03-15T10:25:16.227Z,99.90
2019-03-15T10:27:45.438Z,99.90
2019-03-15T10:30:16.004Z,99.90
2019-03-15T10:32:45.311Z,99.90
2019-03-15T10:35:14.640Z,99.90
2019-03-15T10:37:43.688Z,99.90
2019-03-15T10:40:20.682Z,99.90
2019-03-15T10:42:49.688Z,99.90
2019-03-15T10:45:18.705Z,99.90
2019-03-15T10:47:48.088Z,99.90
2019-03-15T10:50:18.250Z,99.90
2019-03-15T10:52:47.504Z,99.90
2019-03-15T10:55:16.640Z,99.90
2019-03-15T10:57:45.589Z,99.90
2019-03-15T11:00:22.184Z,99.90
2019-03-15T11:02:51.483Z,99.90
2019-03-15T11:05:20.632Z,99.90
2019-03-15T11:07:49.808Z,99.90
2019-03-15T11:10:18.840Z,99.90
2019-03-15T11:12:47.992Z,99.90
2019-03-15T11:15:17.284Z,99.90
2019-03-15T11:17:46.412Z,99.90
2019-03-15T11:20:15.678Z,99.90
2019-03-15T11:22:44.722Z,99.90
2019-03-15T11:25:14.107Z,99.90
2019-03-15T11:27:43.170Z,99.90
2019-03-15T11:30:13.655Z,99.90
2019-03-15T11:32:42.862Z,99.90
2019-03-15T11:35:12.605Z,99.90
2019-03-15T11:37:41.679Z,99.70
2019-03-15T11:40:18.872Z,99.80
2019-03-15T11:42:47.165Z,99.90
2019-03-15T11:45:16.177Z,99.90
2019-03-15T11:48:01.829Z,99.90
2019-03-15T11:50:18.089Z,99.90
2019-03-15T11:52:47.124Z,99.90
2019-03-15T11:55:16.285Z,99.90
2019-03-15T11:57:45.711Z,99.90
2019-03-15T12:00:17.121Z,99.90
2019-03-15T12:02:46.085Z,99.90
2019-03-15T12:05:15.477Z,99.90
2019-03-15T12:07:44.801Z,99.90
2019-03-15T12:10:15.966Z,99.90
2019-03-15T12:12:44.982Z,99.90
2019-03-15T12:15:20.056Z,99.90
2019-03-15T12:17:49.142Z,99.80
2019-03-15T12:20:18.416Z,99.80
2019-03-15T12:22:47.686Z,99.90
2019-03-15T12:25:16.959Z,99.90
2019-03-15T12:27:46.133Z,99.90
2019-03-15T12:30:16.406Z,99.90
2019-03-15T12:32:45.835Z,99.90
2019-03-15T12:35:15.841Z,99.90
2019-03-15T12:37:44.941Z,99.90
2019-03-15T12:40:17.593Z,99.70
2019-03-15T12:42:46.852Z,99.50
2019-03-15T12:45:16.321Z,99.50
2019-03-15T12:47:45.470Z,99.50
2019-03-15T12:50:15.386Z,99.30
2019-03-15T12:52:48.455Z,99.10
2019-03-15T12:55:15.722Z,98.90
2019-03-15T12:57:44.797Z,98.90
2019-03-15T13:00:15.959Z,98.50
2019-03-15T13:02:45.368Z,98.70
2019-03-15T13:05:14.740Z,98.90
2019-03-15T13:07:43.793Z,98.40
2019-03-15T13:10:14.039Z,98.80
2019-03-15T13:12:43.471Z,99.00
2019-03-15T13:15:14.282Z,98.70
2019-03-15T13:17:43.549Z,98.60
2019-03-15T13:20:16.831Z,98.60
2019-03-15T13:22:46.035Z,98.10
2019-03-15T13:25:15.161Z,98.30
2019-03-15T13:27:44.403Z,98.30
2019-03-15T13:30:17.097Z,98.20
2019-03-15T13:32:46.255Z,98.30
2019-03-15T13:35:15.969Z,98.20
2019-03-15T13:37:45.117Z,98.40
2019-03-15T13:40:16.747Z,98.30
2019-03-15T13:42:46.086Z,98.50
2019-03-15T13:45:15.994Z,98.50
2019-03-15T13:47:45.122Z,98.60
2019-03-15T13:50:18.836Z,98.50
2019-03-15T13:52:48.158Z,98.40
2019-03-15T13:55:17.630Z,98.30
2019-03-15T13:57:46.774Z,98.30
2019-03-15T14:00:18.206Z,98.50
2019-03-15T14:02:47.293Z,98.10
2019-03-15T14:05:16.483Z,98.20
2019-03-15T14:07:45.573Z,98.30
2019-03-15T14:10:15.784Z,98.00
2019-03-15T14:12:44.806Z,98.30
2019-03-15T14:15:15.232Z,98.30
2019-03-15T14:17:44.288Z,98.20
2019-03-15T14:20:14.404Z,98.50
2019-03-15T14:22:44.538Z,98.20
2019-03-15T14:25:21.943Z,98.50
2019-03-15T14:27:50.938Z,98.40
2019-03-15T14:30:20.084Z,98.40
2019-03-15T14:32:49.112Z,98.50
2019-03-15T14:35:18.285Z,98.50
2019-03-15T14:37:47.235Z,98.50
2019-03-15T14:40:16.413Z,98.70
2019-03-15T14:42:45.611Z,98.50
2019-03-15T14:45:15.341Z,98.80
2019-03-15T14:47:44.335Z,98.70
2019-03-15T14:50:14.839Z,98.70
2019-03-15T14:52:43.976Z,98.70
2019-03-15T14:55:18.982Z,98.90
2019-03-15T14:57:52.728Z,98.60
2019-03-15T15:00:19.810Z,98.50
2019-03-15T15:02:49.075Z,98.30
2019-03-15T15:05:18.182Z,98.30
2019-03-15T15:07:47.521Z,98.40
2019-03-15T15:10:18.370Z,98.30
2019-03-15T15:12:47.466Z,98.40
2019-03-15T15:15:20.362Z,98.50
2019-03-15T15:17:49.422Z,98.50
2019-03-15T15:20:18.439Z,98.40
2019-03-15T15:22:47.537Z,98.40
2019-03-15T15:25:17.680Z,98.60
2019-03-15T15:27:46.643Z,98.20
2019-03-15T15:30:17.926Z,98.50
2019-03-15T15:32:46.977Z,98.10
2019-03-15T15:35:15.972Z,98.00
2019-03-15T15:37:45.246Z,98.20
2019-03-15T15:40:20.770Z,98.40
2019-03-15T15:42:49.824Z,98.40
2019-03-15T15:45:18.842Z,98.30
2019-03-15T15:47:47.953Z,98.50
2019-03-15T15:50:17.595Z,98.80
2019-03-15T15:52:46.619Z,98.80
2019-03-15T15:55:16.504Z,98.90
2019-03-15T15:57:45.595Z,99.10
2019-03-15T16:00:16.441Z,99.10
2019-03-15T16:02:45.720Z,99.00
2019-03-15T16:05:15.678Z,99.20
2019-03-15T16:07:44.709Z,99.10
2019-03-15T16:10:18.163Z,99.00
2019-03-15T16:12:47.616Z,99.00
2019-03-15T16:15:19.836Z,98.80
2019-03-15T16:17:48.952Z,98.50
2019-03-15T16:20:18.060Z,98.70
2019-03-15T16:22:47.113Z,98.50
2019-03-15T16:25:16.353Z,98.70
2019-03-15T16:27:45.502Z,98.70
2019-03-15T16:30:18.546Z,98.50
2019-03-15T16:32:47.571Z,98.30
2019-03-15T16:35:16.830Z,98.20
2019-03-15T16:37:45.792Z,98.20
2019-03-15T16:40:15.704Z,98.10
2019-03-15T16:42:45.122Z,97.80
2019-03-15T16:45:30.544Z,97.60
2019-03-15T16:47:59.505Z,97.60
2019-03-15T16:50:28.545Z,97.70
2019-03-15T16:52:57.500Z,97.60
2019-03-15T16:55:26.495Z,97.70
2019-03-15T16:57:55.814Z,97.70
2019-03-15T17:00:24.861Z,97.50
2019-03-15T17:02:54.167Z,97.60
2019-03-15T17:05:23.377Z,97.50
2019-03-15T17:07:52.373Z,97.50
2019-03-15T17:10:21.496Z,97.50
2019-03-15T17:12:50.602Z,97.60
2019-03-15T17:15:25.172Z,97.80
2019-03-15T17:17:54.386Z,97.60
2019-03-15T17:20:23.836Z,97.70
2019-03-15T17:22:53.166Z,97.60
2019-03-15T17:25:22.255Z,97.70
2019-03-15T17:27:51.273Z,97.80
2019-03-15T17:30:20.729Z,97.80
2019-03-15T17:32:50.050Z,97.60
2019-03-15T17:35:20.336Z,97.70
2019-03-15T17:37:49.478Z,97.70
2019-03-15T17:40:20.757Z,97.80
2019-03-15T17:42:50.051Z,97.80
2019-03-15T17:45:19.071Z,97.70
2019-03-15T17:47:48.334Z,97.70
2019-03-15T17:50:26.029Z,97.90
2019-03-15T17:52:55.083Z,98.00
2019-03-15T17:55:24.027Z,97.80
2019-03-15T17:57:53.137Z,98.10
2019-03-15T18:00:31.679Z,97.90
2019-03-15T18:03:00.737Z,97.80
2019-03-15T18:05:30.020Z,97.70
2019-03-15T18:07:59.100Z,97.90
2019-03-15T18:10:28.264Z,97.30
2019-03-15T18:12:57.690Z,97.90
2019-03-15T18:15:26.794Z,97.50
2019-03-15T18:17:55.884Z,97.40
2019-03-15T18:20:25.118Z,97.20
2019-03-15T18:22:54.145Z,97.00
2019-03-15T18:25:23.132Z,97.00
2019-03-15T18:27:52.956Z,97.00
2019-03-15T18:30:22.245Z,97.10
2019-03-15T18:32:51.376Z,97.20
2019-03-15T18:35:32.872Z,96.90
2019-03-15T18:37:51.147Z,96.90
2019-03-15T18:40:20.728Z,97.50
2019-03-15T18:42:49.876Z,97.10
2019-03-15T18:45:19.170Z,96.90
2019-03-15T18:47:48.194Z,97.20
2019-03-15T18:50:22.696Z,97.00
2019-03-15T18:52:52.149Z,97.10
2019-03-15T18:55:21.359Z,96.90
2019-03-15T18:57:50.803Z,97.40
2019-03-15T19:00:23.747Z,96.70
2019-03-15T19:02:52.931Z,97.10
2019-03-15T19:05:22.151Z,96.90
2019-03-15T19:07:51.163Z,96.80
2019-03-15T19:10:20.154Z,96.70
2019-03-15T19:12:49.235Z,96.70
2019-03-15T19:15:19.650Z,96.90
2019-03-15T19:17:48.747Z,96.70
2019-03-15T19:20:17.825Z,96.90
2019-03-15T19:22:46.849Z,96.90
2019-03-15T19:25:16.356Z,96.90
2019-03-15T19:27:45.391Z,96.90
2019-03-15T19:30:20.603Z,96.70
2019-03-15T19:32:49.663Z,96.80
2019-03-15T19:35:18.669Z,96.50
2019-03-15T19:37:47.865Z,96.70
2019-03-15T19:40:18.944Z,96.60
2019-03-15T19:42:48.165Z,96.40
2019-03-15T19:45:17.651Z,96.20
2019-03-15T19:47:46.632Z,96.20
2019-03-15T19:50:17.959Z,96.00
2019-03-15T19:52:47.009Z,95.70
2019-03-15T19:55:16.642Z,95.60
2019-03-15T19:57:45.835Z,95.70
2019-03-15T20:00:19.004Z,95.40
2019-03-15T20:02:48.134Z,95.30
2019-03-15T20:05:17.438Z,95.50
2019-03-15T20:07:46.663Z,95.20
2019-03-15T20:10:17.198Z,95.30
2019-03-15T20:12:46.546Z,95.10
2019-03-15T20:15:16.553Z,95.20
2019-03-15T20:17:45.776Z,95.40
2019-03-15T20:20:16.850Z,95.30
2019-03-15T20:22:46.077Z,95.10
2019-03-15T20:25:16.025Z,95.00
2019-03-15T20:27:45.105Z,95.10
2019-03-15T20:30:26.570Z,95.20
2019-03-15T20:32:54.864Z,95.40
2019-03-15T20:35:23.875Z,95.60
2019-03-15T20:37:53.071Z,95.30
2019-03-15T20:40:24.484Z,95.30
2019-03-15T20:42:53.536Z,95.50
2019-03-15T20:45:26.117Z,95.50
2019-03-15T20:47:55.179Z,95.70
2019-03-15T20:50:24.245Z,95.70
2019-03-15T20:53:07.147Z,95.70
2019-03-15T20:55:24.147Z,95.60
2019-03-15T20:57:53.150Z,95.70
2019-03-15T21:00:34.852Z,95.70
2019-03-15T21:02:53.582Z,96.00
2019-03-15T21:05:22.637Z,96.10
2019-03-15T21:07:51.694Z,96.10
2019-03-15T21:10:21.625Z,96.20
2019-03-15T21:12:50.771Z,96.50
2019-03-15T21:15:21.092Z,96.60
2019-03-15T21:17:50.220Z,96.80
2019-03-15T21:20:22.558Z,96.80
2019-03-15T21:22:51.074Z,96.90
2019-03-15T21:25:20.096Z,97.00
2019-03-15T21:27:54.175Z,97.10
2019-03-15T21:30:22.422Z,97.00
2019-03-15T21:32:51.408Z,97.40
2019-03-15T21:35:20.357Z,97.80
2019-03-15T21:37:49.501Z,97.90
2019-03-15T21:40:19.661Z,97.90
2019-03-15T21:42:48.690Z,98.00
2019-03-15T21:45:17.731Z,98.00
2019-03-15T21:47:46.847Z,98.00
2019-03-15T21:50:23.593Z,98.10
2019-03-15T21:52:52.642Z,98.20
2019-03-15T21:55:21.839Z,98.20
2019-03-15T21:57:50.881Z,98.70
2019-03-15T22:00:20.563Z,98.80
2019-03-15T22:02:49.698Z,98.70
2019-03-15T22:05:18.725Z,98.40
2019-03-15T22:07:47.969Z,98.50
2019-03-15T22:10:17.558Z,98.30
2019-03-15T22:12:46.652Z,98.20
2019-03-15T22:15:15.881Z,98.10
2019-03-15T22:17:44.933Z,98.00
2019-03-15T22:20:17.592Z,97.90
2019-03-15T22:22:46.565Z,97.80
2019-03-15T22:25:15.753Z,97.60
2019-03-15T22:27:44.810Z,97.50
2019-03-15T22:30:15.838Z,97.50
2019-03-15T22:32:44.949Z,97.50
2019-03-15T22:35:14.231Z,97.20
2019-03-15T22:37:43.369Z,97.10
2019-03-15T22:40:13.668Z,96.90
2019-03-15T22:42:42.701Z,96.70
2019-03-15T22:45:12.995Z,96.60
2019-03-15T22:47:42.041Z,96.70
2019-03-15T22:50:11.958Z,96.40
2019-03-15T22:52:41.054Z,96.50
2019-03-15T22:55:11.096Z,96.30
2019-03-15T22:57:40.596Z,96.20
2019-03-15T23:00:15.559Z,96.00
2019-03-15T23:02:44.658Z,96.00
2019-03-15T23:05:14.263Z,96.30
2019-03-15T23:07:43.501Z,95.80
2019-03-15T23:10:12.646Z,95.90
2019-03-15T23:12:41.699Z,95.80
2019-03-15T23:15:11.824Z,95.60
2019-03-15T23:17:40.849Z,95.40
2019-03-15T23:20:11.513Z,95.30
2019-03-15T23:22:40.491Z,95.40
2019-03-15T23:25:09.844Z,95.40
2019-03-15T23:27:38.972Z,95.70
2019-03-15T23:30:15.643Z,95.40
2019-03-15T23:32:44.850Z,95.50
2019-03-15T23:35:14.062Z,95.40
2019-03-15T23:37:43.099Z,95.20
2019-03-15T23:40:14.169Z,94.90
2019-03-15T23:42:43.280Z,95.30
2019-03-15T23:45:12.551Z,95.20
2019-03-15T23:47:41.817Z,95.40
2019-03-15T23:50:14.704Z,95.70
2019-03-15T23:52:43.757Z,95.60
2019-03-15T23:55:12.830Z,95.80
2019-03-15T23:57:41.993Z,95.90
